createdAt,value
2019-04-23T00:01:12.259Z,16.35
2019-04-23T00:03:34.445Z,16.27
2019-04-23T00:06:08.561Z,16.35
2019-04-23T00:08:44.831Z,16.49
2019-04-23T00:11:08.677Z,16.41
2019-04-23T00:13:38.491Z,16.41
2019-04-23T00:16:18.675Z,16.44
2019-04-23T00:21:20.730Z,16.35
2019-04-23T00:24:04.012Z,16.32
2019-04-23T00:26:34.372Z,16.29
2019-04-23T00:28:58.930Z,16.23
2019-04-23T00:33:57.329Z,16.28
2019-04-23T00:36:32.135Z,16.26
2019-04-23T00:38:56.662Z,16.23
2019-04-23T00:41:33.449Z,16.12
2019-04-23T00:46:36.818Z,15.90
2019-04-23T00:49:05.843Z,15.90
2019-04-23T00:51:36.964Z,15.88
2019-04-23T00:54:06.018Z,15.81
2019-04-23T00:56:58.354Z,15.80
2019-04-23T00:59:05.398Z,15.85
2019-04-23T01:01:45.835Z,15.89
2019-04-23T01:04:10.217Z,16.02
2019-04-23T01:06:43.462Z,15.92
2019-04-23T01:09:08.191Z,15.79
2019-04-23T01:11:43.532Z,15.78
2019-04-23T01:14:13.647Z,15.68
2019-04-23T01:16:59.764Z,15.67
2019-04-23T01:21:47.457Z,15.70
2019-04-23T01:24:37.185Z,15.64
2019-04-23T01:27:51.389Z,15.68
2019-04-23T01:32:36.563Z,15.59
2019-04-23T01:35:15.367Z,15.60
2019-04-23T01:37:36.717Z,15.53
2019-04-23T01:40:11.812Z,15.61
2019-04-23T01:42:40.608Z,15.57
2019-04-23T01:45:13.339Z,15.61
2019-04-23T01:47:47.183Z,15.83
2019-04-23T01:50:14.072Z,15.76
2019-04-23T01:52:50.610Z,15.77
2019-04-23T01:55:14.965Z,15.72
2019-04-23T02:02:49.951Z,15.45
2019-04-23T02:05:24.380Z,15.26
2019-04-23T02:07:50.928Z,15.14
2019-04-23T02:10:38.052Z,15.12
2019-04-23T02:12:55.731Z,15.14
2019-04-23T02:15:23.022Z,15.10
2019-04-23T02:23:14.869Z,15.16
2019-04-23T02:25:49.050Z,15.07
2019-04-23T02:28:11.903Z,15.15
2019-04-23T02:30:57.812Z,15.10
2019-04-23T02:33:29.833Z,14.97
2019-04-23T02:35:56.192Z,14.86
2019-04-23T02:38:27.263Z,14.79
2019-04-23T02:50:43.894Z,14.63
2019-04-23T02:56:16.731Z,14.44
2019-04-23T02:58:38.662Z,14.36
2019-04-23T03:01:15.115Z,14.17
2019-04-23T03:03:35.757Z,14.24
2019-04-23T03:08:33.051Z,14.22
2019-04-23T03:11:09.809Z,14.23
2019-04-23T03:13:37.625Z,14.32
2019-04-23T03:18:53.739Z,14.24
2019-04-23T03:21:52.834Z,14.10
2019-04-23T03:29:43.437Z,13.80
2019-04-23T03:33:29.530Z,13.82
2019-04-23T03:42:16.312Z,13.87
2019-04-23T03:47:20.648Z,13.99
2019-04-23T03:49:46.361Z,14.04
2019-04-23T03:52:25.389Z,14.13
2019-04-23T03:55:03.262Z,14.23
2019-04-23T03:57:24.691Z,14.21
2019-04-23T03:59:55.101Z,14.04
2019-04-23T04:04:45.158Z,13.72
2019-04-23T04:07:27.858Z,13.75
2019-04-23T04:09:57.765Z,13.66
2019-04-23T04:14:54.414Z,13.49
2019-04-23T04:17:33.034Z,13.42
2019-04-23T04:19:56.295Z,13.37
2019-04-23T04:25:21.231Z,13.26
2019-04-23T04:27:43.351Z,13.26
2019-04-23T04:30:01.575Z,13.39
2019-04-23T04:32:31.595Z,13.35
2019-04-23T04:35:18.808Z,13.31
2019-04-23T04:40:10.868Z,13.17
2019-04-23T04:43:22.514Z,13.17
2019-04-23T04:45:30.568Z,13.21
2019-04-23T04:47:42.603Z,13.21
2019-04-23T04:52:48.796Z,13.05
2019-04-23T04:55:16.200Z,13.05
2019-04-23T04:57:41.697Z,13.07
2019-04-23T05:02:52.779Z,12.98
2019-04-23T05:05:48.450Z,13.02
2019-04-23T05:10:30.222Z,12.96
2019-04-23T05:12:56.399Z,12.96
2019-04-23T05:15:07.264Z,13.03
2019-04-23T05:20:36.739Z,13.06
2019-04-23T05:23:16.479Z,13.01
2019-04-23T05:25:31.808Z,13.16
2019-04-23T05:28:13.885Z,13.18
2019-04-23T05:33:14.138Z,13.22
2019-04-23T05:36:02.016Z,13.17
2019-04-23T05:38:22.319Z,13.26
2019-04-23T05:40:45.310Z,13.25
2019-04-23T05:43:15.840Z,13.34
2019-04-23T05:45:39.898Z,13.18
2019-04-23T05:48:19.844Z,13.19
2019-04-23T05:51:00.840Z,13.27
2019-04-23T05:53:18.404Z,13.29
2019-04-23T05:55:47.632Z,13.29
2019-04-23T05:58:22.110Z,13.46
2019-04-23T06:00:59.917Z,13.40
2019-04-23T06:03:24.874Z,13.49
2019-04-23T06:06:03.302Z,13.57
2019-04-23T06:08:32.076Z,13.75
2019-04-23T06:11:05.642Z,13.72
2019-04-23T06:13:36.570Z,13.78
2019-04-23T06:15:59.671Z,13.82
2019-04-23T06:18:38.553Z,13.86
2019-04-23T06:21:12.873Z,13.86
2019-04-23T06:23:46.384Z,13.90
2019-04-23T06:28:33.624Z,14.09
2019-04-23T06:31:06.430Z,14.26
2019-04-23T06:33:43.385Z,14.26
2019-04-23T06:36:17.052Z,14.34
2019-04-23T06:41:15.696Z,14.45
2019-04-23T06:44:00.476Z,14.59
2019-04-23T06:46:25.320Z,14.61
2019-04-23T06:48:54.856Z,14.66
2019-04-23T06:51:31.125Z,14.74
2019-04-23T06:53:59.968Z,14.94
2019-04-23T06:59:02.458Z,15.13
2019-04-23T07:01:31.072Z,15.30
2019-04-23T07:04:02.554Z,15.27
2019-04-23T07:06:31.505Z,15.43
2019-04-23T07:11:42.966Z,15.64
2019-04-23T07:16:39.940Z,15.76
2019-04-23T07:19:09.223Z,16.05
2019-04-23T07:21:54.117Z,16.06
2019-04-23T07:29:12.097Z,16.55
2019-04-23T07:31:40.904Z,16.75
2019-04-23T07:34:05.499Z,17.08
2019-04-23T07:36:44.640Z,17.27
2019-04-23T07:39:21.958Z,17.56
2019-04-23T07:42:28.032Z,17.55
2019-04-23T07:44:56.608Z,17.51
2019-04-23T07:47:45.228Z,17.56
2019-04-23T07:50:24.568Z,17.51
2019-04-23T07:52:51.550Z,17.39
2019-04-23T07:55:30.112Z,17.55
2019-04-23T07:57:54.985Z,17.48
2019-04-23T08:00:28.888Z,17.56
2019-04-23T08:03:04.215Z,17.85
2019-04-23T08:05:24.084Z,18.11
2019-04-23T08:07:55.848Z,18.05
2019-04-23T08:10:29.716Z,17.92
2019-04-23T08:13:04.253Z,18.08
2019-04-23T08:15:29.165Z,18.16
2019-04-23T08:17:59.005Z,18.31
2019-04-23T08:20:40.683Z,18.33
2019-04-23T08:23:03.771Z,18.48
2019-04-23T08:25:45.533Z,18.67
2019-04-23T08:28:25.908Z,18.72
2019-04-23T08:30:46.552Z,18.76
2019-04-23T08:33:19.180Z,18.71
2019-04-23T08:35:55.700Z,18.82
2019-04-23T08:38:26.618Z,19.03
2019-04-23T08:43:36.431Z,18.97
2019-04-23T08:46:15.554Z,19.17
2019-04-23T08:48:49.703Z,19.08
2019-04-23T08:51:31.925Z,19.24
2019-04-23T08:53:51.635Z,19.52
2019-04-23T08:56:27.489Z,20.15
2019-04-23T08:58:49.347Z,20.56
2019-04-23T09:01:16.955Z,20.88
2019-04-23T09:03:47.888Z,21.43
2019-04-23T09:06:24.462Z,22.19
2019-04-23T09:08:49.982Z,22.12
2019-04-23T09:11:41.822Z,22.28
2019-04-23T09:16:28.886Z,22.86
2019-04-23T09:19:02.621Z,23.41
2019-04-23T09:21:27.023Z,24.01
2019-04-23T09:23:56.169Z,25.09
2019-04-23T09:26:26.013Z,25.20
2019-04-23T09:29:02.566Z,25.32
2019-04-23T09:34:47.835Z,24.86
2019-04-23T09:40:18.868Z,24.10
2019-04-23T09:42:54.328Z,24.68
2019-04-23T09:48:02.401Z,25.70
2019-04-23T09:50:36.621Z,25.70
2019-04-23T09:55:39.749Z,25.04
2019-04-23T09:58:11.797Z,25.54
2019-04-23T10:00:47.004Z,25.71
2019-04-23T10:03:05.041Z,26.43
2019-04-23T10:05:30.904Z,26.53
2019-04-23T10:08:01.637Z,26.62
2019-04-23T10:10:22.730Z,26.53
2019-04-23T10:12:53.657Z,26.32
2019-04-23T10:15:28.820Z,26.13
2019-04-23T10:17:54.274Z,26.39
2019-04-23T10:20:24.807Z,26.46
2019-04-23T10:22:54.552Z,25.99
2019-04-23T10:25:24.028Z,25.11
2019-04-23T10:27:58.650Z,24.43
2019-04-23T10:30:24.472Z,24.21
2019-04-23T10:32:53.755Z,24.05
2019-04-23T10:35:35.315Z,24.73
2019-04-23T10:38:01.866Z,25.20
2019-04-23T10:40:30.260Z,26.37
2019-04-23T10:42:57.898Z,27.19
2019-04-23T10:46:10.554Z,27.43
2019-04-23T10:49:22.215Z,27.50
2019-04-23T10:51:51.622Z,28.18
2019-04-23T10:54:23.535Z,28.97
2019-04-23T10:59:30.120Z,28.03
2019-04-23T11:02:15.983Z,28.37
2019-04-23T11:07:20.867Z,27.49
2019-04-23T11:12:23.404Z,27.64
2019-04-23T11:14:52.760Z,27.68
2019-04-23T11:17:19.474Z,27.20
2019-04-23T11:19:58.231Z,27.63
2019-04-23T11:22:38.870Z,28.18
2019-04-23T11:27:24.276Z,28.15
2019-04-23T11:29:52.467Z,28.42
2019-04-23T11:32:42.894Z,28.31
2019-04-23T11:37:36.892Z,28.02
2019-04-23T11:40:01.720Z,27.60
2019-04-23T11:42:32.737Z,27.19
2019-04-23T11:44:56.663Z,27.20
2019-04-23T11:48:05.264Z,26.45
2019-04-23T11:52:36.447Z,25.58
2019-04-23T11:55:07.328Z,26.02
2019-04-23T11:57:40.777Z,25.66
2019-04-23T11:59:59.476Z,25.88
2019-04-23T12:02:49.799Z,25.87
2019-04-23T12:08:38.077Z,25.25
2019-04-23T12:14:09.592Z,25.31
2019-04-23T12:16:47.137Z,25.16
2019-04-23T12:19:33.394Z,25.28
2019-04-23T12:21:43.869Z,25.21
2019-04-23T12:24:17.157Z,25.38
2019-04-23T12:26:44.370Z,25.63
2019-04-23T12:29:20.330Z,25.95
2019-04-23T12:31:49.181Z,25.97
2019-04-23T12:34:15.043Z,26.13
2019-04-23T12:36:46.667Z,26.41
2019-04-23T12:39:27.045Z,26.29
2019-04-23T12:41:51.191Z,26.78
2019-04-23T12:44:27.002Z,27.38
2019-04-23T12:46:54.241Z,28.06
2019-04-23T12:49:44.600Z,28.01
2019-04-23T12:52:05.000Z,27.96
2019-04-23T12:54:51.721Z,28.25
2019-04-23T12:59:36.769Z,27.85
2019-04-23T13:02:33.345Z,27.11
2019-04-23T13:04:41.846Z,26.59
2019-04-23T13:07:17.511Z,26.56
2019-04-23T13:09:54.548Z,27.06
2019-04-23T13:12:29.284Z,27.50
2019-04-23T13:14:55.543Z,28.46
2019-04-23T13:17:29.727Z,28.49
2019-04-23T13:19:54.709Z,28.76
2019-04-23T13:22:23.957Z,28.47
2019-04-23T13:25:10.108Z,27.71
2019-04-23T13:33:01.129Z,27.37
2019-04-23T13:37:59.411Z,27.36
2019-04-23T13:40:36.489Z,27.93
2019-04-23T13:43:27.110Z,28.09
2019-04-23T13:48:06.082Z,28.11
2019-04-23T13:53:31.636Z,28.34
2019-04-23T13:55:27.917Z,29.45
2019-04-23T14:00:44.778Z,29.73
2019-04-23T14:03:03.212Z,28.72
2019-04-23T14:06:00.960Z,27.98
2019-04-23T14:08:41.614Z,28.22
2019-04-23T14:10:53.246Z,28.10
2019-04-23T14:13:50.857Z,28.13
2019-04-23T14:16:04.658Z,28.49
2019-04-23T14:18:51.673Z,28.38
2019-04-23T14:21:05.859Z,27.59
2019-04-23T14:23:54.129Z,27.79
2019-04-23T14:31:04.785Z,28.38
2019-04-23T14:33:51.215Z,28.54
2019-04-23T14:36:10.928Z,28.39
2019-04-23T14:41:21.799Z,28.50
2019-04-23T14:43:48.743Z,28.35
2019-04-23T14:51:24.167Z,27.14
2019-04-23T14:53:43.891Z,26.81
2019-04-23T14:56:22.550Z,26.85
2019-04-23T14:58:57.455Z,26.51
2019-04-23T15:01:27.367Z,26.28
2019-04-23T15:08:59.194Z,26.22
2019-04-23T15:11:29.412Z,26.41
2019-04-23T15:13:55.391Z,26.43
2019-04-23T15:21:55.492Z,26.77
2019-04-23T15:24:25.104Z,27.00
2019-04-23T15:29:06.060Z,27.07
2019-04-23T15:31:59.242Z,26.84
2019-04-23T15:34:17.674Z,26.48
2019-04-23T15:37:15.565Z,26.79
2019-04-23T15:39:32.205Z,26.91
2019-04-23T15:44:16.127Z,27.13
2019-04-23T15:49:31.618Z,26.11
2019-04-23T15:52:17.066Z,26.03
2019-04-23T15:54:35.720Z,25.45
2019-04-23T15:57:02.480Z,25.33
2019-04-23T15:59:34.663Z,25.17
2019-04-23T16:01:42.618Z,25.12
2019-04-23T16:04:06.096Z,25.20
2019-04-23T16:06:38.517Z,24.75
2019-04-23T16:09:28.078Z,24.13
2019-04-23T16:11:59.645Z,24.06
2019-04-23T16:14:50.354Z,23.91
2019-04-23T16:17:13.806Z,24.13
2019-04-23T16:22:36.636Z,24.70
2019-04-23T16:27:38.006Z,25.36
2019-04-23T16:33:11.287Z,25.29
2019-04-23T16:36:01.928Z,24.99
2019-04-23T16:38:32.513Z,24.86
2019-04-23T16:40:47.637Z,25.31
2019-04-23T16:43:40.397Z,25.32
2019-04-23T16:46:03.115Z,25.53
2019-04-23T16:48:46.470Z,25.37
2019-04-23T16:53:37.366Z,24.97
2019-04-23T16:56:18.539Z,25.14
2019-04-23T17:03:31.234Z,25.40
2019-04-23T17:06:15.671Z,25.44
2019-04-23T17:08:52.892Z,24.84
2019-04-23T17:11:08.942Z,24.85
2019-04-23T17:16:15.284Z,24.92
2019-04-23T17:18:41.108Z,24.85
2019-04-23T17:21:11.821Z,24.73
2019-04-23T17:26:23.949Z,24.41
2019-04-23T17:28:44.440Z,24.15
2019-04-23T17:33:54.603Z,23.67
2019-04-23T17:39:10.640Z,23.49
2019-04-23T17:42:05.440Z,23.39
2019-04-23T17:44:38.611Z,23.42
2019-04-23T17:47:08.700Z,23.40
2019-04-23T17:49:44.574Z,23.38
2019-04-23T17:52:17.038Z,23.43
2019-04-23T17:54:42.292Z,23.31
2019-04-23T18:00:04.875Z,23.12
2019-04-23T18:05:04.111Z,22.97
2019-04-23T18:07:39.182Z,22.81
2019-04-23T18:12:38.992Z,22.64
2019-04-23T18:15:03.390Z,22.55
2019-04-23T18:20:24.787Z,22.25
2019-04-23T18:23:04.791Z,21.72
2019-04-23T18:25:30.776Z,21.55
2019-04-23T18:31:06.207Z,21.31
2019-04-23T18:34:05.314Z,20.90
2019-04-23T18:36:14.837Z,21.19
2019-04-23T18:38:52.693Z,21.06
2019-04-23T18:41:10.717Z,21.01
2019-04-23T18:43:55.139Z,20.96
2019-04-23T18:48:53.328Z,20.34
2019-04-23T18:51:21.375Z,20.29
2019-04-23T18:54:08.175Z,20.50
2019-04-23T18:56:31.155Z,20.22
2019-04-23T18:59:11.015Z,20.28
2019-04-23T19:01:30.980Z,20.25
2019-04-23T19:07:05.251Z,20.15
2019-04-23T19:15:33.304Z,19.88
2019-04-23T19:17:56.625Z,20.04
2019-04-23T19:20:38.292Z,20.12
2019-04-23T19:25:22.872Z,19.98
2019-04-23T19:27:52.121Z,19.74
2019-04-23T19:30:43.119Z,19.88
2019-04-23T19:33:13.685Z,19.62
2019-04-23T19:38:13.585Z,19.43
2019-04-23T19:40:51.891Z,19.32
2019-04-23T19:43:19.420Z,19.27
2019-04-23T19:45:55.748Z,19.40
2019-04-23T19:53:32.208Z,19.20
2019-04-23T19:56:04.349Z,19.05
2019-04-23T19:58:32.453Z,18.94
2019-04-23T20:01:13.754Z,18.75
2019-04-23T20:06:02.948Z,18.66
2019-04-23T20:08:46.410Z,18.42
2019-04-23T20:11:04.515Z,18.40
2019-04-23T20:13:41.151Z,18.43
2019-04-23T20:16:10.575Z,18.51
2019-04-23T20:18:47.808Z,18.59
2019-04-23T20:20:58.981Z,18.86
2019-04-23T20:24:02.146Z,18.75
2019-04-23T20:36:53.201Z,18.54
2019-04-23T20:39:30.333Z,18.48
2019-04-23T20:44:39.429Z,18.37
2019-04-23T20:47:06.296Z,18.35
2019-04-23T20:49:40.751Z,18.23
2019-04-23T20:52:04.727Z,18.08
2019-04-23T20:54:43.188Z,18.04
2019-04-23T20:57:31.637Z,18.01
2019-04-23T21:05:09.839Z,17.98
2019-04-23T21:07:49.121Z,18.14
2019-04-23T21:17:56.203Z,17.24
2019-04-23T21:20:19.679Z,17.20
2019-04-23T21:22:41.172Z,17.22
2019-04-23T21:25:11.856Z,17.12
2019-04-23T21:27:55.427Z,16.96
2019-04-23T21:30:43.603Z,16.85
2019-04-23T21:33:07.371Z,16.66
2019-04-23T21:36:13.723Z,16.54
2019-04-23T21:46:47.662Z,16.37
2019-04-23T21:51:51.611Z,16.37
2019-04-23T21:54:08.009Z,16.33
2019-04-23T21:56:48.347Z,16.33
2019-04-23T22:02:03.626Z,16.31
2019-04-23T22:04:25.676Z,16.28
2019-04-23T22:09:26.941Z,16.22
2019-04-23T22:12:03.550Z,16.13
2019-04-23T22:14:27.482Z,16.13
2019-04-23T22:17:03.308Z,16.04
2019-04-23T22:19:52.742Z,16.02
2019-04-23T22:21:57.508Z,16.02
2019-04-23T22:24:27.278Z,16.00
2019-04-23T22:26:57.628Z,15.97
2019-04-23T22:29:36.892Z,15.85
2019-04-23T22:31:53.786Z,15.79
2019-04-23T22:37:11.184Z,15.64
2019-04-23T22:39:39.947Z,15.62
2019-04-23T22:42:22.024Z,15.46
2019-04-23T22:44:56.155Z,15.44
2019-04-23T22:47:30.003Z,15.46
2019-04-23T22:49:55.347Z,15.43
2019-04-23T22:52:23.026Z,15.43
2019-04-23T22:54:57.370Z,15.44
2019-04-23T22:57:11.604Z,15.47
2019-04-23T23:00:02.407Z,15.32
2019-04-23T23:02:44.366Z,15.22
2019-04-23T23:07:48.939Z,14.98
2019-04-23T23:15:37.207Z,14.76
2019-04-23T23:17:50.595Z,14.68
2019-04-23T23:20:20.880Z,14.63
2019-04-23T23:22:59.122Z,14.72
2019-04-23T23:25:19.112Z,14.73
2019-04-23T23:27:52.094Z,14.73
2019-04-23T23:32:49.112Z,14.79
2019-04-23T23:35:24.312Z,14.73
2019-04-23T23:37:55.942Z,14.81
2019-04-23T23:40:21.868Z,14.84
2019-04-23T23:43:08.827Z,14.93
2019-04-23T23:47:58.642Z,14.67
2019-04-23T23:50:25.482Z,14.82
2019-04-23T23:53:11.955Z,14.83
2019-04-23T23:58:06.436Z,14.94
